createdAt,value
2023-04-01T00:01:03.234Z,91.56
2023-04-01T00:03:30.575Z,91.54
2023-04-01T00:05:59.554Z,91.96
2023-04-01T00:08:27.212Z,92.31
2023-04-01T00:10:54.012Z,92.09
2023-04-01T00:13:21.057Z,92.19
2023-04-01T00:15:49.470Z,92.12
2023-04-01T00:18:16.472Z,92.46
2023-04-01T00:20:51.391Z,92.87
2023-04-01T00:23:19.982Z,92.89
2023-04-01T00:25:48.766Z,93.08
2023-04-01T00:28:19.804Z,93.00
2023-04-01T00:30:46.788Z,93.25
2023-04-01T00:33:13.402Z,93.19
2023-04-01T00:35:41.364Z,93.22
2023-04-01T00:38:07.762Z,93.08
2023-04-01T00:40:37.337Z,93.30
2023-04-01T00:43:10.799Z,93.25
2023-04-01T00:45:40.434Z,93.14
2023-04-01T00:48:16.972Z,93.40
2023-04-01T00:50:48.602Z,93.65
2023-04-01T00:53:17.089Z,92.95
2023-04-01T00:55:51.075Z,93.12
2023-04-01T00:58:21.251Z,93.28
2023-04-01T01:00:49.850Z,93.38
2023-04-01T01:03:16.807Z,93.81
2023-04-01T01:06:08.626Z,93.94
2023-04-01T01:08:53.295Z,93.60
2023-04-01T01:11:33.625Z,93.69
2023-04-01T01:14:27.857Z,93.89
2023-04-01T01:17:16.514Z,94.30
2023-04-01T01:20:25.397Z,93.98
2023-04-01T01:23:08.375Z,93.98
2023-04-01T01:26:07.016Z,94.34
2023-04-01T01:28:58.020Z,94.38
2023-04-01T01:31:37.568Z,93.99
2023-04-01T01:34:22.895Z,93.93
2023-04-01T01:36:57.349Z,93.92
2023-04-01T01:39:28.812Z,93.75
2023-04-01T01:41:58.278Z,93.74
2023-04-01T01:44:27.592Z,93.99
2023-04-01T01:46:54.061Z,93.64
2023-04-01T01:49:21.048Z,93.63
2023-04-01T01:51:48.981Z,93.80
2023-04-01T01:54:17.458Z,93.33
2023-04-01T01:56:48.443Z,93.23
2023-04-01T01:59:17.012Z,93.73
2023-04-01T02:01:49.482Z,93.34
2023-04-01T02:04:18.121Z,93.46
2023-04-01T02:06:54.622Z,93.56
2023-04-01T02:09:21.400Z,93.50
2023-04-01T02:11:53.068Z,92.79
2023-04-01T02:14:26.951Z,93.37
2023-04-01T02:16:56.767Z,93.74
2023-04-01T02:19:30.426Z,93.48
2023-04-01T02:22:00.502Z,93.60
2023-04-01T02:24:30.928Z,93.47
2023-04-01T02:26:57.344Z,92.96
2023-04-01T02:29:28.803Z,93.36
2023-04-01T02:31:55.897Z,93.47
2023-04-01T02:34:23.787Z,93.23
2023-04-01T02:36:51.353Z,93.30
2023-04-01T02:39:17.986Z,93.42
2023-04-01T02:41:46.212Z,93.55
2023-04-01T02:44:14.431Z,93.63
2023-04-01T02:46:41.504Z,93.51
2023-04-01T02:49:08.230Z,93.66
2023-04-01T02:51:35.015Z,93.67
2023-04-01T02:54:01.851Z,93.80
2023-04-01T02:56:28.974Z,93.54
2023-04-01T02:58:55.559Z,93.53
2023-04-01T03:01:22.379Z,93.69
2023-04-01T03:03:48.929Z,93.57
2023-04-01T03:06:16.747Z,93.60
2023-04-01T03:08:43.448Z,93.63
2023-04-01T03:11:11.236Z,94.13
2023-04-01T03:13:38.000Z,93.90
2023-04-01T03:16:04.787Z,93.82
2023-04-01T03:18:31.230Z,93.88
2023-04-01T03:20:57.806Z,94.10
2023-04-01T03:23:25.158Z,94.42
2023-04-01T03:25:51.871Z,94.55
2023-04-01T03:28:18.367Z,94.78
2023-04-01T03:30:44.852Z,94.68
2023-04-01T03:33:11.496Z,94.46
2023-04-01T03:35:37.910Z,94.67
2023-04-01T03:38:04.443Z,95.04
2023-04-01T03:40:30.974Z,95.23
2023-04-01T03:42:57.493Z,95.26
2023-04-01T03:45:24.008Z,95.23
2023-04-01T03:47:50.581Z,95.36
2023-04-01T03:50:17.101Z,94.88
2023-04-01T03:52:43.477Z,95.49
2023-04-01T03:55:09.883Z,95.17
2023-04-01T03:57:38.658Z,95.28
2023-04-01T04:00:14.903Z,95.11
2023-04-01T04:02:43.668Z,95.00
2023-04-01T04:05:14.149Z,95.23
2023-04-01T04:07:40.646Z,95.16
2023-04-01T04:10:08.815Z,95.10
2023-04-01T04:12:35.481Z,94.95
2023-04-01T04:15:02.137Z,94.62
2023-04-01T04:17:28.530Z,94.97
2023-04-01T04:19:55.095Z,94.86
2023-04-01T04:22:21.848Z,94.72
2023-04-01T04:24:48.206Z,94.74
2023-04-01T04:27:14.590Z,94.88
2023-04-01T04:30:01.334Z,94.88
2023-04-01T04:32:29.331Z,95.03
2023-04-01T04:34:56.489Z,95.06
2023-04-01T04:37:22.849Z,95.16
2023-04-01T04:39:49.416Z,94.73
2023-04-01T04:42:16.175Z,94.94
2023-04-01T04:44:42.623Z,94.91
2023-04-01T04:47:09.076Z,95.12
2023-04-01T04:49:36.387Z,94.80
2023-04-01T04:52:07.398Z,94.92
2023-04-01T04:54:33.751Z,95.29
2023-04-01T04:57:02.043Z,94.97
2023-04-01T04:59:32.743Z,95.09
2023-04-01T05:02:05.197Z,94.77
2023-04-01T05:04:36.082Z,94.80
2023-04-01T05:07:02.504Z,94.86
2023-04-01T05:09:29.491Z,94.78
2023-04-01T05:11:56.106Z,94.82
2023-04-01T05:14:24.156Z,94.85
2023-04-01T05:16:59.690Z,94.91
2023-04-01T05:19:26.225Z,94.94
2023-04-01T05:21:53.815Z,94.60
2023-04-01T05:24:20.314Z,94.86
2023-04-01T05:26:47.243Z,94.65
2023-04-01T05:29:13.612Z,94.72
2023-04-01T05:31:41.194Z,94.66
2023-04-01T05:34:07.976Z,94.74
2023-04-01T05:36:35.118Z,94.83
2023-04-01T05:39:01.458Z,95.13
2023-04-01T05:41:28.423Z,95.34
2023-04-01T05:43:55.013Z,95.04
2023-04-01T05:46:47.573Z,95.42
2023-04-01T05:49:27.682Z,95.12
2023-04-01T05:51:55.832Z,95.11
2023-04-01T05:54:22.288Z,95.15
2023-04-01T05:56:49.001Z,95.33
2023-04-01T05:59:16.129Z,95.29
2023-04-01T06:01:42.618Z,95.32
2023-04-01T06:04:14.928Z,95.15
2023-04-01T06:06:41.328Z,95.30
2023-04-01T06:09:17.158Z,95.46
2023-04-01T06:12:01.681Z,95.62
2023-04-01T06:14:42.703Z,95.90
2023-04-01T06:17:40.954Z,95.50
2023-04-01T06:20:07.585Z,95.72
2023-04-01T06:22:58.513Z,95.61
2023-04-01T06:25:32.906Z,95.71
2023-04-01T06:28:08.468Z,95.74
2023-04-01T06:30:44.595Z,96.05
2023-04-01T06:33:57.000Z,95.91
2023-04-01T06:36:38.787Z,96.17
2023-04-01T06:39:23.468Z,96.15
2023-04-01T06:42:10.230Z,96.13
2023-04-01T06:44:51.112Z,95.92
2023-04-01T06:48:04.994Z,96.13
2023-04-01T06:51:00.782Z,96.06
2023-04-01T06:54:15.760Z,95.99
2023-04-01T06:57:06.624Z,95.58
2023-04-01T06:59:36.069Z,95.58
2023-04-01T07:02:16.346Z,95.48
2023-04-01T07:04:49.381Z,95.27
2023-04-01T07:07:35.571Z,95.42
2023-04-01T07:10:15.372Z,95.52
2023-04-01T07:13:16.858Z,95.52
2023-04-01T07:16:09.508Z,95.62
2023-04-01T07:18:49.292Z,95.04
2023-04-01T07:21:26.315Z,95.21
2023-04-01T07:24:01.339Z,95.23
2023-04-01T07:26:33.815Z,95.42
2023-04-01T07:29:13.214Z,95.67
2023-04-01T07:32:07.885Z,95.64
2023-04-01T07:34:57.983Z,95.34
2023-04-01T07:37:38.808Z,95.49
2023-04-01T07:40:24.307Z,94.97
2023-04-01T07:43:19.124Z,95.25
2023-04-01T07:46:01.662Z,94.93
2023-04-01T07:48:39.486Z,95.57
2023-04-01T07:51:27.708Z,95.39
2023-04-01T07:54:09.184Z,95.40
2023-04-01T07:56:49.684Z,95.73
2023-04-01T07:59:40.517Z,95.45
2023-04-01T08:02:41.346Z,95.61
2023-04-01T08:05:19.874Z,95.27
2023-04-01T08:08:08.275Z,95.35
2023-04-01T08:11:03.844Z,95.85
2023-04-01T08:14:18.592Z,95.94
2023-04-01T08:17:08.594Z,95.94
2023-04-01T08:20:02.746Z,95.94
2023-04-01T08:22:41.447Z,95.60
2023-04-01T08:25:22.796Z,95.74
2023-04-01T08:28:21.779Z,95.80
2023-04-01T08:30:54.000Z,95.74
2023-04-01T08:33:23.142Z,95.91
2023-04-01T08:36:00.665Z,96.07
2023-04-01T08:38:37.060Z,96.29
2023-04-01T08:41:31.509Z,96.10
2023-04-01T08:44:31.927Z,96.23
2023-04-01T08:47:10.735Z,96.81
2023-04-01T08:49:55.941Z,96.10
2023-04-01T08:52:59.584Z,96.37
2023-04-01T08:55:32.948Z,96.34
2023-04-01T08:58:33.342Z,96.12
2023-04-01T09:01:38.346Z,96.20
2023-04-01T09:04:09.120Z,96.48
2023-04-01T09:06:51.757Z,96.30
2023-04-01T09:09:31.096Z,96.35
2023-04-01T09:12:16.350Z,96.40
2023-04-01T09:15:10.690Z,96.24
2023-04-01T09:17:50.303Z,95.94
2023-04-01T09:20:42.797Z,96.37
2023-04-01T09:23:30.222Z,96.39
2023-04-01T09:26:11.789Z,96.34
2023-04-01T09:28:56.879Z,96.65
2023-04-01T09:31:52.372Z,96.39
2023-04-01T09:34:56.005Z,96.30
2023-04-01T09:37:52.554Z,96.39
2023-04-01T09:40:53.806Z,95.76
2023-04-01T09:43:59.039Z,96.15
2023-04-01T09:46:53.981Z,96.33
2023-04-01T09:49:32.854Z,96.43
2023-04-01T09:52:28.722Z,95.96
2023-04-01T09:55:33.946Z,95.60
2023-04-01T09:58:32.415Z,95.89
2023-04-01T10:01:40.347Z,96.38
2023-04-01T10:04:34.402Z,96.53
2023-04-01T10:07:30.379Z,96.43
2023-04-01T10:10:24.003Z,96.27
2023-04-01T10:13:14.719Z,96.30
2023-04-01T10:16:03.595Z,96.37
2023-04-01T10:18:42.537Z,96.73
2023-04-01T10:21:46.590Z,96.82
2023-04-01T10:24:12.985Z,96.50
2023-04-01T10:27:02.436Z,96.78
2023-04-01T10:30:02.660Z,96.32
2023-04-01T10:32:56.894Z,96.65
2023-04-01T10:36:01.378Z,96.15
2023-04-01T10:39:04.027Z,96.55
2023-04-01T10:41:48.657Z,96.16
2023-04-01T10:45:02.695Z,96.19
2023-04-01T10:48:13.090Z,96.28
2023-04-01T10:50:49.017Z,96.02
2023-04-01T10:53:40.306Z,96.11
2023-04-01T10:56:39.984Z,96.67
2023-04-01T10:59:40.258Z,96.32
2023-04-01T11:02:48.022Z,96.33
2023-04-01T11:05:52.161Z,96.30
2023-04-01T11:08:47.273Z,96.63
2023-04-01T11:11:29.295Z,96.47
2023-04-01T11:14:17.725Z,96.09
2023-04-01T11:16:44.091Z,96.30
2023-04-01T11:19:48.001Z,95.89
2023-04-01T11:22:28.098Z,95.97
2023-04-01T11:25:33.193Z,96.32
2023-04-01T11:28:28.629Z,95.63
2023-04-01T11:31:06.701Z,96.07
2023-04-01T11:33:53.089Z,95.05
2023-04-01T11:36:34.957Z,95.24
2023-04-01T11:39:30.408Z,95.04
2023-04-01T11:42:21.072Z,95.35
2023-04-01T11:45:21.179Z,95.00
2023-04-01T11:48:03.956Z,94.82
2023-04-01T11:51:00.776Z,95.19
2023-04-01T11:53:49.529Z,95.62
2023-04-01T11:56:54.375Z,95.61
2023-04-01T11:59:49.776Z,95.79
2023-04-01T12:02:34.790Z,95.91
2023-04-01T12:05:19.865Z,96.08
2023-04-01T12:07:55.570Z,95.95
2023-04-01T12:10:32.760Z,95.92
2023-04-01T12:13:28.835Z,96.26
2023-04-01T12:16:29.375Z,96.41
2023-04-01T12:19:27.191Z,96.06
2023-04-01T12:22:32.574Z,96.25
2023-04-01T12:25:24.030Z,95.93
2023-04-01T12:28:01.317Z,95.95
2023-04-01T12:30:49.639Z,95.80
2023-04-01T12:33:19.083Z,95.80
2023-04-01T12:36:11.117Z,95.59
2023-04-01T12:39:09.056Z,95.88
2023-04-01T12:41:52.976Z,95.75
2023-04-01T12:44:40.805Z,95.20
2023-04-01T12:47:32.746Z,95.42
2023-04-01T12:50:14.424Z,95.56
2023-04-01T12:53:04.669Z,94.74
2023-04-01T12:55:40.585Z,94.84
2023-04-01T12:58:39.312Z,95.26
2023-04-01T13:01:23.877Z,95.14
2023-04-01T13:04:06.640Z,94.82
2023-04-01T13:07:01.306Z,95.30
2023-04-01T13:09:39.525Z,94.55
2023-04-01T13:12:48.950Z,94.44
2023-04-01T13:15:36.749Z,93.85
2023-04-01T13:18:15.414Z,94.44
2023-04-01T13:21:03.613Z,94.52
2023-04-01T13:23:39.198Z,94.15
2023-04-01T13:26:28.257Z,94.42
2023-04-01T13:29:18.564Z,94.52
2023-04-01T13:32:03.204Z,95.04
2023-04-01T13:34:41.015Z,94.51
2023-04-01T13:37:23.936Z,95.31
2023-04-01T13:40:21.337Z,95.14
2023-04-01T13:42:58.437Z,94.96
2023-04-01T13:45:50.212Z,94.80
2023-04-01T13:48:28.253Z,94.41
2023-04-01T13:51:09.488Z,95.04
2023-04-01T13:53:52.420Z,95.05
2023-04-01T13:56:49.864Z,95.71
2023-04-01T14:00:11.774Z,95.35
2023-04-01T14:03:08.285Z,95.66
2023-04-01T14:05:55.613Z,95.58
2023-04-01T14:08:48.103Z,95.83
2023-04-01T14:11:17.460Z,96.10
2023-04-01T14:13:57.106Z,95.84
2023-04-01T14:17:05.904Z,95.73
2023-04-01T14:19:48.277Z,95.53
2023-04-01T14:22:21.125Z,95.50
2023-04-01T14:25:26.128Z,95.74
2023-04-01T14:28:04.301Z,95.48
2023-04-01T14:30:53.741Z,96.03
2023-04-01T14:33:43.989Z,95.23
2023-04-01T14:36:39.227Z,95.14
2023-04-01T14:39:20.024Z,95.50
2023-04-01T14:42:22.044Z,95.06
2023-04-01T14:45:26.536Z,95.38
2023-04-01T14:47:57.978Z,95.52
2023-04-01T14:50:28.566Z,95.44
2023-04-01T14:53:23.928Z,95.73
2023-04-01T14:55:57.265Z,95.63
2023-04-01T14:58:27.115Z,95.06
2023-04-01T15:01:15.566Z,95.25
2023-04-01T15:04:09.644Z,95.46
2023-04-01T15:07:12.342Z,95.30
2023-04-01T15:10:15.165Z,95.07
2023-04-01T15:13:06.464Z,95.34
2023-04-01T15:15:59.685Z,94.96
2023-04-01T15:18:49.229Z,95.00
2023-04-01T15:21:28.430Z,94.75
2023-04-01T15:24:08.872Z,95.44
2023-04-01T15:26:59.860Z,94.99
2023-04-01T15:29:34.231Z,95.56
2023-04-01T15:32:18.684Z,95.04
2023-04-01T15:35:08.786Z,94.46
2023-04-01T15:38:06.539Z,94.53
2023-04-01T15:40:36.176Z,95.18
2023-04-01T15:43:27.452Z,94.24
2023-04-01T15:46:14.842Z,94.29
2023-04-01T15:48:51.806Z,94.41
2023-04-01T15:51:18.878Z,94.89
2023-04-01T15:53:57.628Z,95.63
2023-04-01T15:57:06.931Z,95.23
2023-04-01T15:59:51.591Z,94.73
2023-04-01T16:02:33.920Z,95.59
2023-04-01T16:05:06.527Z,95.63
2023-04-01T16:07:48.093Z,95.49
2023-04-01T16:10:29.850Z,95.36
2023-04-01T16:13:34.242Z,95.72
2023-04-01T16:16:09.651Z,95.46
2023-04-01T16:19:08.195Z,95.72
2023-04-01T16:21:44.162Z,95.42
2023-04-01T16:24:33.672Z,95.55
2023-04-01T16:27:11.448Z,95.80
2023-04-01T16:30:03.980Z,96.06
2023-04-01T16:32:54.545Z,96.03
2023-04-01T16:35:42.347Z,95.88
2023-04-01T16:38:26.113Z,96.49
2023-04-01T16:41:15.588Z,96.27
2023-04-01T16:43:47.896Z,96.23
2023-04-01T16:46:39.422Z,95.90
2023-04-01T16:49:11.749Z,96.17
2023-04-01T16:51:52.930Z,96.25
2023-04-01T16:54:21.979Z,96.56
2023-04-01T16:57:17.007Z,96.66
2023-04-01T17:00:04.375Z,96.53
2023-04-01T17:02:48.163Z,96.42
2023-04-01T17:05:14.588Z,96.33
2023-04-01T17:08:28.530Z,96.84
2023-04-01T17:11:06.927Z,96.98
2023-04-01T17:13:46.953Z,97.09
2023-04-01T17:16:26.097Z,97.07
2023-04-01T17:19:04.687Z,96.59
2023-04-01T17:21:47.834Z,96.68
2023-04-01T17:24:39.177Z,96.73
2023-04-01T17:27:23.452Z,96.92
2023-04-01T17:30:31.908Z,96.86
2023-04-01T17:33:18.950Z,96.52
2023-04-01T17:36:03.518Z,96.71
2023-04-01T17:38:43.598Z,96.38
2023-04-01T17:41:26.380Z,96.63
2023-04-01T17:44:34.822Z,96.99
2023-04-01T17:47:26.384Z,97.08
2023-04-01T17:49:58.865Z,97.10
2023-04-01T17:52:49.531Z,97.24
2023-04-01T17:55:18.818Z,97.68
2023-04-01T17:58:14.161Z,97.66
2023-04-01T18:01:09.317Z,97.33
2023-04-01T18:03:58.542Z,97.51
2023-04-01T18:06:41.490Z,97.43
2023-04-01T18:09:41.850Z,97.63
2023-04-01T18:12:41.805Z,97.90
2023-04-01T18:15:32.430Z,97.48
2023-04-01T18:18:10.784Z,97.30
2023-04-01T18:20:54.230Z,97.21
2023-04-01T18:23:33.085Z,97.74
2023-04-01T18:26:19.651Z,97.70
2023-04-01T18:29:04.956Z,97.47
2023-04-01T18:31:41.463Z,97.89
2023-04-01T18:34:41.587Z,98.06
2023-04-01T18:37:39.739Z,98.21
2023-04-01T18:40:27.249Z,98.08
2023-04-01T18:43:30.472Z,98.37
2023-04-01T18:46:17.795Z,98.34
2023-04-01T18:49:14.299Z,98.24
2023-04-01T18:51:58.492Z,97.95
2023-04-01T18:54:41.850Z,97.95
2023-04-01T18:57:20.887Z,97.90
2023-04-01T19:00:05.421Z,97.50
2023-04-01T19:02:49.666Z,97.58
2023-04-01T19:05:24.859Z,97.08
2023-04-01T19:07:56.877Z,96.76
2023-04-01T19:10:46.866Z,96.59
2023-04-01T19:13:24.039Z,96.64
2023-04-01T19:16:08.674Z,96.11
2023-04-01T19:18:49.929Z,96.51
2023-04-01T19:21:36.594Z,96.16
2023-04-01T19:24:38.205Z,96.25
2023-04-01T19:27:25.345Z,95.99
2023-04-01T19:30:10.446Z,95.60
2023-04-01T19:33:19.480Z,95.08
2023-04-01T19:36:06.978Z,95.17
2023-04-01T19:38:43.840Z,95.13
2023-04-01T19:41:24.237Z,94.76
2023-04-01T19:44:16.548Z,94.64
2023-04-01T19:46:55.384Z,94.22
2023-04-01T19:49:34.123Z,93.92
2023-04-01T19:52:22.493Z,94.39
2023-04-01T19:55:00.651Z,94.23
2023-04-01T19:57:48.709Z,94.82
2023-04-01T20:00:30.931Z,94.40
2023-04-01T20:03:29.116Z,94.22
2023-04-01T20:06:07.586Z,94.31
2023-04-01T20:08:46.721Z,94.10
2023-04-01T20:11:18.869Z,93.70
2023-04-01T20:14:06.974Z,93.83
2023-04-01T20:16:59.478Z,94.04
2023-04-01T20:19:40.255Z,94.16
2023-04-01T20:22:26.035Z,94.32
2023-04-01T20:24:53.857Z,93.89
2023-04-01T20:27:26.752Z,94.50
2023-04-01T20:30:14.816Z,93.99
2023-04-01T20:33:18.871Z,94.17
2023-04-01T20:36:01.374Z,93.62
2023-04-01T20:38:53.770Z,93.90
2023-04-01T20:42:01.345Z,93.83
2023-04-01T20:44:43.341Z,94.07
2023-04-01T20:47:28.205Z,93.96
2023-04-01T20:50:06.703Z,94.06
2023-04-01T20:52:42.440Z,94.30
2023-04-01T20:55:45.770Z,93.64
2023-04-01T20:58:43.889Z,93.83
2023-04-01T21:01:35.368Z,93.82
2023-04-01T21:04:19.395Z,93.22
2023-04-01T21:07:15.585Z,93.36
2023-04-01T21:09:56.720Z,93.97
2023-04-01T21:12:41.712Z,94.06
2023-04-01T21:15:31.588Z,94.17
2023-04-01T21:18:17.851Z,94.21
2023-04-01T21:21:00.778Z,93.73
2023-04-01T21:23:55.374Z,94.03
2023-04-01T21:26:40.181Z,93.98
2023-04-01T21:29:26.165Z,93.31
2023-04-01T21:32:11.182Z,93.50
2023-04-01T21:35:16.118Z,93.47
2023-04-01T21:37:53.489Z,93.62
2023-04-01T21:40:52.127Z,94.09
2023-04-01T21:44:06.913Z,93.36
2023-04-01T21:46:55.972Z,93.19
2023-04-01T21:49:40.265Z,93.05
2023-04-01T21:52:35.261Z,93.28
2023-04-01T21:55:35.407Z,93.02
2023-04-01T21:58:29.923Z,92.88
2023-04-01T22:01:07.999Z,93.05
2023-04-01T22:03:41.207Z,92.68
2023-04-01T22:07:01.089Z,93.74
2023-04-01T22:09:39.229Z,92.97
2023-04-01T22:12:19.029Z,92.98
2023-04-01T22:14:51.378Z,93.83
2023-04-01T22:17:37.669Z,93.07
2023-04-01T22:20:27.880Z,92.94
2023-04-01T22:23:28.267Z,93.31
2023-04-01T22:26:17.349Z,93.17
2023-04-01T22:28:56.047Z,92.93
2023-04-01T22:31:51.211Z,92.67
2023-04-01T22:34:36.537Z,92.94
2023-04-01T22:37:05.585Z,92.43
2023-04-01T22:39:37.964Z,92.91
2023-04-01T22:42:16.531Z,92.90
2023-04-01T22:45:04.242Z,92.61
2023-04-01T22:47:45.565Z,93.13
2023-04-01T22:50:22.946Z,93.05
2023-04-01T22:52:59.692Z,92.55
2023-04-01T22:55:33.958Z,93.26
2023-04-01T22:58:12.231Z,93.20
2023-04-01T23:00:44.098Z,93.09
2023-04-01T23:03:31.163Z,93.17
2023-04-01T23:06:00.403Z,93.56
2023-04-01T23:09:03.801Z,93.80
2023-04-01T23:11:45.544Z,93.86
2023-04-01T23:14:21.061Z,94.15
2023-04-01T23:16:58.031Z,93.80
2023-04-01T23:19:42.729Z,93.73
2023-04-01T23:22:22.456Z,94.04
2023-04-01T23:24:59.804Z,93.94
2023-04-01T23:27:29.241Z,94.18
2023-04-01T23:29:55.732Z,94.03
2023-04-01T23:32:27.145Z,93.90
2023-04-01T23:34:57.967Z,93.68
2023-04-01T23:37:25.466Z,93.60
2023-04-01T23:39:58.156Z,94.28
2023-04-01T23:42:28.334Z,94.34
2023-04-01T23:44:58.038Z,94.60
2023-04-01T23:47:34.606Z,94.62
2023-04-01T23:50:18.622Z,94.43
2023-04-01T23:52:49.368Z,94.55
2023-04-01T23:55:22.665Z,94.32
2023-04-01T23:58:17.660Z,94.38
